Time;durP1;ratioP1;P1;durP2;ratioP2;P2;SDS_P1;SDS_P2;PMS_P1;PMS_P2;Temp;Humidity;BMP_temperature;BMP_pressure;BME280_temperature;BME280_humidity;BME280_pressure;Samples;Min_cycle;Max_cycle;Signal;HPM_P1;HPM_P2
2022/07/14 00:00:54;;;;;;;12.85;2.85;;;20.60;62.70;;;;;;5016469;28;20030;-64
2022/07/14 00:03:21;;;;;;;9.13;2.97;;;20.60;62.80;;;;;;5020268;28;20428;-65
2022/07/14 00:05:47;;;;;;;10.45;2.47;;;20.50;62.90;;;;;;5024094;28;20351;-64
2022/07/14 00:08:13;;;;;;;10.15;2.30;;;20.50;63.10;;;;;;5028927;28;20096;-64
2022/07/14 00:10:38;;;;;;;7.70;2.22;;;20.50;63.10;;;;;;5016318;28;20098;-65
2022/07/14 00:13:04;;;;;;;8.52;2.40;;;20.40;63.10;;;;;;5026945;28;20057;-64
2022/07/14 00:15:31;;;;;;;8.73;2.50;;;20.40;63.20;;;;;;5021632;28;20056;-64
2022/07/14 00:17:58;;;;;;;8.57;2.50;;;20.40;63.20;;;;;;5015896;28;20038;-65
2022/07/14 00:20:24;;;;;;;6.78;2.13;;;20.40;63.30;;;;;;5030153;28;20044;-64
2022/07/14 00:22:50;;;;;;;10.60;2.38;;;20.40;63.40;;;;;;5021874;28;20029;-64
2022/07/14 00:25:16;;;;;;;11.90;2.90;;;20.40;63.40;;;;;;5020338;28;20033;-65
2022/07/14 00:27:43;;;;;;;10.23;2.53;;;20.40;63.40;;;;;;5031387;28;20311;-65
2022/07/14 00:30:09;;;;;;;11.90;3.13;;;20.40;63.40;;;;;;5030596;28;20053;-65
2022/07/14 00:32:35;;;;;;;10.13;2.80;;;20.40;63.40;;;;;;5028950;28;20040;-64
2022/07/14 00:35:05;;;;;;;8.05;2.30;;;20.30;63.40;;;;;;5028329;28;20033;-65
2022/07/14 00:37:31;;;;;;;8.63;2.90;;;20.30;63.50;;;;;;5025701;28;20037;-64
2022/07/14 00:39:56;;;;;;;8.65;2.47;;;20.30;63.50;;;;;;5024015;28;20029;-64
2022/07/14 00:42:32;;;;;;;7.47;2.38;;;20.20;63.50;;;;;;5023030;28;20108;-64
2022/07/14 00:44:59;;;;;;;9.63;2.45;;;20.30;64.30;;;;;;5028464;28;20065;-64
2022/07/14 00:47:25;;;;;;;8.00;2.22;;;20.20;63.50;;;;;;5024038;28;20053;-64
2022/07/14 00:49:52;;;;;;;8.77;2.53;;;20.20;63.50;;;;;;5027107;28;20022;-64
2022/07/14 00:52:18;;;;;;;8.18;2.72;;;20.20;63.50;;;;;;5018568;28;20037;-64
2022/07/14 00:54:44;;;;;;;10.35;2.83;;;20.20;63.50;;;;;;5026430;28;20029;-64
2022/07/14 00:57:10;;;;;;;9.88;2.42;;;20.20;63.50;;;;;;5027101;28;20514;-64
2022/07/14 00:59:35;;;;;;;11.32;2.70;;;20.20;63.50;;;;;;5023420;28;20030;-65
2022/07/14 01:02:01;;;;;;;10.07;2.15;;;20.20;63.50;;;;;;5024512;28;20021;-64
2022/07/14 01:04:27;;;;;;;7.13;2.35;;;20.20;63.50;;;;;;5023513;28;20124;-64
2022/07/14 01:06:53;;;;;;;9.00;2.33;;;20.20;63.40;;;;;;5024603;28;20061;-65
2022/07/14 01:09:18;;;;;;;8.88;2.38;;;20.20;63.30;;;;;;5013630;28;20029;-65
2022/07/14 01:11:44;;;;;;;12.55;2.35;;;20.20;63.30;;;;;;5021179;28;20041;-65
2022/07/14 01:14:10;;;;;;;11.05;2.30;;;20.20;63.30;;;;;;5023740;28;20516;-64
2022/07/14 01:16:35;;;;;;;10.88;2.75;;;20.20;63.30;;;;;;5021994;28;20517;-64
2022/07/14 01:19:01;;;;;;;9.63;2.70;;;20.20;63.30;;;;;;5019895;28;20021;-64
2022/07/14 01:21:26;;;;;;;10.02;2.33;;;20.20;63.30;;;;;;5030114;28;20069;-64
2022/07/14 01:23:52;;;;;;;8.15;2.13;;;20.20;63.30;;;;;;5018771;28;20076;-65
2022/07/14 01:26:18;;;;;;;8.02;2.50;;;20.10;63.20;;;;;;5023436;28;20053;-65
2022/07/14 01:28:43;;;;;;;11.35;2.78;;;20.10;63.30;;;;;;5016781;28;20332;-64
2022/07/14 01:31:09;;;;;;;9.40;2.47;;;20.10;63.30;;;;;;5023330;28;20021;-64
2022/07/14 01:33:35;;;;;;;7.18;1.65;;;20.10;63.30;;;;;;5013135;28;20021;-65
2022/07/14 01:36:01;;;;;;;7.07;2.20;;;20.10;63.20;;;;;;5013958;28;20054;-65
2022/07/14 01:38:26;;;;;;;9.73;2.13;;;20.00;63.20;;;;;;5013677;28;20033;-65
2022/07/14 01:40:52;;;;;;;8.65;2.63;;;20.00;63.10;;;;;;5013707;28;20049;-64
2022/07/14 01:43:17;;;;;;;8.20;2.65;;;20.00;63.20;;;;;;4995031;28;20030;-64
2022/07/14 01:45:43;;;;;;;6.47;2.20;;;20.00;63.10;;;;;;5012535;28;20036;-65
2022/07/14 01:48:09;;;;;;;9.82;2.55;;;20.00;63.10;;;;;;5029297;28;20022;-64
2022/07/14 01:50:34;;;;;;;9.35;2.25;;;20.00;63.20;;;;;;5024669;28;20018;-65
2022/07/14 01:53:01;;;;;;;10.07;2.17;;;19.90;63.20;;;;;;5026932;28;20444;-65
2022/07/14 01:55:26;;;;;;;8.95;2.40;;;19.90;63.30;;;;;;5013214;28;20129;-65
2022/07/14 01:57:52;;;;;;;9.50;2.38;;;19.80;63.30;;;;;;5014648;28;20041;-64
2022/07/14 02:00:18;;;;;;;7.85;2.20;;;19.80;63.40;;;;;;5011726;28;20026;-64
2022/07/14 02:02:47;;;;;;;7.68;2.42;;;19.70;63.40;;;;;;5026516;28;20478;-64
2022/07/14 02:05:14;;;;;;;9.18;2.67;;;19.70;63.50;;;;;;5027210;28;20119;-64
2022/07/14 02:07:40;;;;;;;9.10;2.30;;;19.70;63.60;;;;;;5013502;28;20025;-64
2022/07/14 02:12:58;;;;;;;8.23;2.78;;;19.70;63.60;;;;;;5014384;28;20057;-64
2022/07/14 02:15:24;;;;;;;10.38;1.95;;;19.60;63.60;;;;;;5014163;28;20029;-64
2022/07/14 02:17:50;;;;;;;6.70;1.90;;;19.60;63.70;;;;;;5010143;28;21166;-64
2022/07/14 02:20:18;;;;;;;11.13;2.58;;;19.60;63.80;;;;;;5012576;28;20040;-64
2022/07/14 02:22:46;;;;;;;10.68;2.58;;;19.50;63.80;;;;;;5028410;28;20422;-64
2022/07/14 02:25:12;;;;;;;8.70;2.25;;;19.50;63.90;;;;;;5012447;28;20061;-65
2022/07/14 02:27:38;;;;;;;12.07;2.22;;;19.40;64.00;;;;;;5029728;28;20026;-65
2022/07/14 02:30:04;;;;;;;9.82;2.10;;;19.40;64.10;;;;;;5013501;28;20037;-65
2022/07/14 02:32:31;;;;;;;10.82;2.45;;;19.40;64.20;;;;;;5013124;28;20018;-65
2022/07/14 02:34:58;;;;;;;7.50;2.05;;;19.30;64.10;;;;;;5012082;28;20026;-64
2022/07/14 02:37:24;;;;;;;9.55;2.67;;;19.30;64.20;;;;;;5012507;28;20117;-65
2022/07/14 02:39:49;;;;;;;8.75;2.30;;;19.30;64.30;;;;;;5012029;28;20455;-65
2022/07/14 02:42:15;;;;;;;8.32;2.30;;;19.30;64.30;;;;;;5010968;28;20033;-65
2022/07/14 02:44:41;;;;;;;8.68;2.50;;;19.30;64.40;;;;;;5012371;28;20079;-65
2022/07/14 02:47:06;;;;;;;8.02;2.13;;;19.30;64.40;;;;;;5010810;28;20117;-64
2022/07/14 02:49:32;;;;;;;8.98;2.40;;;19.20;64.40;;;;;;5017480;28;20117;-65
2022/07/14 02:51:58;;;;;;;10.52;2.33;;;19.20;64.50;;;;;;5022350;28;20049;-65
2022/07/14 02:54:24;;;;;;;11.05;2.28;;;19.20;64.50;;;;;;5018436;28;20030;-64
2022/07/14 02:56:49;;;;;;;5.80;2.10;;;19.20;64.60;;;;;;5022323;28;20033;-65
2022/07/14 02:59:15;;;;;;;10.25;2.75;;;19.10;64.60;;;;;;5022452;28;20113;-64
2022/07/14 03:01:44;;;;;;;9.38;2.35;;;19.10;64.70;;;;;;5007077;28;20068;-65
2022/07/14 03:04:15;;;;;;;;;;;19.00;64.70;;;;;;5022880;28;20030;-64
2022/07/14 03:06:42;;;;;;;10.07;2.17;;;19.00;64.80;;;;;;5026682;28;19909;-65
2022/07/14 03:09:09;;;;;;;7.93;2.42;;;19.00;65.00;;;;;;5024407;28;20571;-65
2022/07/14 03:11:35;;;;;;;11.02;2.55;;;19.00;65.00;;;;;;5021912;28;20580;-64
2022/07/14 03:14:01;;;;;;;9.43;2.25;;;18.90;65.00;;;;;;5025960;28;20054;-64
2022/07/14 03:16:28;;;;;;;8.68;2.78;;;19.00;65.00;;;;;;5016381;28;20036;-64
2022/07/14 03:18:58;;;;;;;7.45;2.20;;;18.90;65.00;;;;;;5033092;28;20060;-64
2022/07/14 03:21:23;;;;;;;9.63;2.38;;;18.90;65.10;;;;;;5042167;28;20818;-65
2022/07/14 03:23:52;;;;;;;7.32;2.28;;;18.90;65.10;;;;;;5027832;28;20100;-64
2022/07/14 03:26:22;;;;;;;7.82;2.03;;;18.90;65.10;;;;;;5020164;28;20021;-64
2022/07/14 03:28:49;;;;;;;9.23;2.47;;;18.90;65.20;;;;;;5021172;28;20028;-64
2022/07/14 03:31:16;;;;;;;10.15;2.00;;;18.80;65.20;;;;;;5011267;28;20087;-64
2022/07/14 03:33:41;;;;;;;11.18;2.78;;;18.80;65.20;;;;;;5018868;28;20026;-64
2022/07/14 03:36:07;;;;;;;12.93;2.63;;;18.80;65.30;;;;;;5025042;28;20537;-65
2022/07/14 03:38:35;;;;;;;8.85;2.47;;;18.80;65.40;;;;;;5022522;28;20029;-64
2022/07/14 03:41:03;;;;;;;10.88;2.47;;;18.70;65.40;;;;;;5002748;28;20030;-64
2022/07/14 03:43:30;;;;;;;9.50;2.35;;;18.80;65.50;;;;;;5013938;28;20030;-64
2022/07/14 03:45:58;;;;;;;7.45;2.17;;;18.80;65.50;;;;;;5015553;28;20080;-64
2022/07/14 03:48:24;;;;;;;7.85;2.30;;;18.80;65.50;;;;;;5012060;28;20455;-64
2022/07/14 03:50:55;;;;;;;;;;;18.70;65.50;;;;;;5010535;28;20072;-64
2022/07/14 03:53:22;;;;;;;5.85;1.70;;;18.70;65.30;;;;;;5025685;28;20035;-65
2022/07/14 03:55:48;;;;;;;9.90;2.28;;;18.70;65.40;;;;;;5015779;28;20466;-65
2022/07/14 03:58:14;;;;;;;7.18;2.00;;;18.70;65.40;;;;;;5032356;28;20022;-65
2022/07/14 04:00:41;;;;;;;7.93;2.42;;;18.70;65.30;;;;;;5031517;28;20120;-65
2022/07/14 04:03:07;;;;;;;6.88;2.03;;;18.70;65.40;;;;;;5015141;28;20482;-65
2022/07/14 04:05:32;;;;;;;7.63;2.35;;;18.70;65.40;;;;;;5015937;28;20021;-65
2022/07/14 04:08:03;;;;;;;8.45;2.33;;;18.70;65.40;;;;;;5016485;28;20104;-65
2022/07/14 04:10:36;;;;;;;8.68;2.35;;;18.70;65.40;;;;;;5018495;28;20045;-64
2022/07/14 04:13:02;;;;;;;7.32;2.10;;;18.70;65.40;;;;;;5017503;28;20042;-64
2022/07/14 04:15:29;;;;;;;12.23;2.65;;;18.70;65.40;;;;;;5006980;28;20536;-64
2022/07/14 04:17:55;;;;;;;10.50;2.58;;;18.60;65.40;;;;;;5014697;28;20022;-65
2022/07/14 04:20:22;;;;;;;9.57;2.33;;;18.60;65.40;;;;;;5013003;28;20112;-65
2022/07/14 04:22:48;;;;;;;9.13;2.72;;;18.70;65.40;;;;;;5020780;28;20029;-65
2022/07/14 04:25:15;;;;;;;9.80;2.22;;;18.60;65.30;;;;;;5016228;28;20025;-64
2022/07/14 04:27:42;;;;;;;8.82;2.20;;;18.70;65.30;;;;;;5031220;28;20030;-65
2022/07/14 04:30:09;;;;;;;9.73;2.30;;;18.70;65.30;;;;;;5015127;28;20026;-65
2022/07/14 04:32:35;;;;;;;10.32;2.08;;;18.70;65.30;;;;;;5028251;28;20029;-65
2022/07/14 04:35:02;;;;;;;10.93;2.20;;;18.70;65.30;;;;;;5031869;28;20036;-65
2022/07/14 04:37:29;;;;;;;8.75;1.80;;;18.70;65.30;;;;;;5011369;28;20026;-64
2022/07/14 04:39:56;;;;;;;9.20;2.60;;;18.70;65.30;;;;;;5028121;28;20394;-65
2022/07/14 04:42:22;;;;;;;9.68;2.10;;;18.70;65.30;;;;;;5013885;28;20061;-65
2022/07/14 04:44:49;;;;;;;7.35;1.95;;;18.80;65.40;;;;;;5014804;28;20040;-65
2022/07/14 04:47:15;;;;;;;10.73;2.22;;;18.80;65.30;;;;;;5014652;28;20030;-65
2022/07/14 04:52:26;;;;;;;12.30;2.60;;;18.80;65.30;;;;;;5000149;28;20506;-65
2022/07/14 04:55:00;;;;;;;7.05;1.88;;;18.80;65.30;;;;;;5012921;28;20018;-65
2022/07/14 04:57:37;;;;;;;12.38;2.15;;;18.80;65.30;;;;;;5031433;28;20038;-65
2022/07/14 05:00:06;;;;;;;6.85;1.63;;;18.80;65.30;;;;;;4998049;28;20071;-65
2022/07/14 05:02:34;;;;;;;10.75;2.40;;;18.90;65.20;;;;;;5013158;28;20029;-64
2022/07/14 05:04:59;;;;;;;9.75;2.28;;;18.90;65.10;;;;;;5014514;28;20025;-65
2022/07/14 05:07:25;;;;;;;6.43;1.60;;;18.90;64.90;;;;;;5014502;28;20359;-64
2022/07/14 05:09:55;;;;;;;9.48;2.45;;;19.00;64.90;;;;;;5029333;28;20125;-65
2022/07/14 05:12:21;;;;;;;7.78;1.75;;;19.00;64.80;;;;;;5012524;28;20113;-65
2022/07/14 05:14:47;;;;;;;8.60;2.30;;;19.00;64.60;;;;;;5014391;28;20032;-64
2022/07/14 05:17:14;;;;;;;11.18;2.50;;;19.10;64.50;;;;;;5014250;28;20029;-64
2022/07/14 05:19:41;;;;;;;6.28;1.80;;;19.20;64.40;;;;;;4998878;28;20033;-65
2022/07/14 05:22:07;;;;;;;8.23;2.33;;;19.30;64.20;;;;;;5013136;28;20026;-65
2022/07/14 05:24:32;;;;;;;8.30;1.95;;;19.40;63.90;;;;;;5010756;28;20092;-65
2022/07/14 05:26:58;;;;;;;8.05;2.03;;;19.50;63.60;;;;;;5004968;28;20021;-65
2022/07/14 05:29:25;;;;;;;7.10;2.28;;;19.60;63.40;;;;;;5013548;28;20025;-66
2022/07/14 05:31:52;;;;;;;7.22;2.30;;;19.70;63.20;;;;;;5014821;28;20032;-65
2022/07/14 05:34:18;;;;;;;6.93;1.70;;;19.80;62.90;;;;;;5011375;28;20370;-65
2022/07/14 05:36:43;;;;;;;11.77;2.45;;;19.90;62.70;;;;;;5012633;28;20419;-65
2022/07/14 05:39:09;;;;;;;10.73;2.00;;;19.90;62.40;;;;;;4999420;28;20026;-66
2022/07/14 05:41:35;;;;;;;6.07;2.00;;;20.00;62.20;;;;;;5010973;28;20099;-65
2022/07/14 05:44:01;;;;;;;8.82;2.03;;;20.10;62.10;;;;;;5013111;28;20030;-65
2022/07/14 05:46:27;;;;;;;7.22;1.50;;;20.20;61.80;;;;;;5020889;28;20033;-65
2022/07/14 05:48:53;;;;;;;8.82;1.90;;;20.30;61.70;;;;;;5013102;28;20030;-67
2022/07/14 05:51:20;;;;;;;7.93;1.70;;;20.40;61.50;;;;;;5020071;28;20036;-66
2022/07/14 05:53:50;;;;;;;8.23;1.90;;;20.40;61.30;;;;;;5018288;28;20030;-66
2022/07/14 05:56:17;;;;;;;6.05;1.65;;;20.50;60.90;;;;;;5011842;28;20025;-66
2022/07/14 05:58:45;;;;;;;6.88;1.88;;;20.60;60.80;;;;;;5021242;28;20367;-66
2022/07/14 06:01:13;;;;;;;8.32;2.10;;;20.70;60.60;;;;;;5017068;28;20056;-66
2022/07/14 06:03:40;;;;;;;10.95;2.70;;;20.80;60.30;;;;;;5018573;28;20124;-66
2022/07/14 06:06:08;;;;;;;7.72;1.95;;;20.80;60.00;;;;;;5010151;28;20034;-66
2022/07/14 06:08:35;;;;;;;6.88;1.90;;;20.90;59.80;;;;;;5018627;28;20022;-66
2022/07/14 06:11:02;;;;;;;6.25;1.75;;;21.10;59.70;;;;;;5013589;28;20037;-66
2022/07/14 06:13:30;;;;;;;9.10;1.73;;;21.10;59.40;;;;;;5014802;28;20049;-67
2022/07/14 06:15:57;;;;;;;5.18;1.90;;;21.30;59.20;;;;;;5014363;28;20029;-66
2022/07/14 06:18:24;;;;;;;7.63;1.80;;;21.40;59.00;;;;;;5019830;28;20385;-66
2022/07/14 06:20:50;;;;;;;9.23;2.13;;;21.50;58.70;;;;;;5017533;28;20041;-66
2022/07/14 06:23:15;;;;;;;8.23;1.65;;;21.60;58.40;;;;;;5014953;28;20033;-65
2022/07/14 06:25:43;;;;;;;10.13;2.15;;;21.70;58.10;;;;;;5016203;28;20037;-65
2022/07/14 06:28:11;;;;;;;7.90;2.15;;;21.70;57.80;;;;;;5016249;28;20101;-65
2022/07/14 06:30:36;;;;;;;5.40;1.98;;;21.80;57.50;;;;;;5013214;28;20098;-65
2022/07/14 06:33:02;;;;;;;7.55;1.88;;;21.90;57.30;;;;;;5030101;28;20069;-65
2022/07/14 06:35:28;;;;;;;8.57;1.70;;;21.90;57.00;;;;;;5037108;28;20025;-66
2022/07/14 06:37:55;;;;;;;8.20;1.85;;;22.00;56.80;;;;;;5037408;28;20426;-65
2022/07/14 06:40:22;;;;;;;10.77;2.25;;;22.20;56.60;;;;;;5037242;28;20109;-65
2022/07/14 06:42:49;;;;;;;9.65;2.13;;;22.30;56.40;;;;;;5027092;28;20422;-65
2022/07/14 06:45:43;;;;;;;7.28;1.98;;;22.40;56.10;;;;;;5037319;28;20327;-65
2022/07/14 06:48:09;;;;;;;6.88;1.90;;;22.60;55.90;;;;;;5037129;28;20025;-65
2022/07/14 06:50:35;;;;;;;7.75;1.98;;;22.70;55.80;;;;;;5021870;28;20022;-65
2022/07/14 06:53:01;;;;;;;6.68;1.70;;;22.90;56.00;;;;;;5024570;28;20029;-65
2022/07/14 06:55:27;;;;;;;7.82;1.63;;;23.00;55.70;;;;;;5037679;28;20056;-65
2022/07/14 06:57:52;;;;;;;7.60;1.70;;;23.10;54.90;;;;;;5037969;28;20082;-65
2022/07/14 07:00:18;;;;;;;7.07;1.65;;;23.20;54.70;;;;;;5037813;28;20071;-65
2022/07/14 07:02:44;;;;;;;7.15;1.67;;;23.30;54.30;;;;;;5037704;28;20037;-65
2022/07/14 07:07:58;;;;;;;8.00;1.60;;;23.60;53.80;;;;;;5033128;28;20042;-66
2022/07/14 07:10:25;;;;;;;8.73;2.00;;;23.70;53.40;;;;;;5018829;28;20029;-65
2022/07/14 07:12:51;;;;;;;6.03;1.90;;;23.80;53.30;;;;;;5033249;28;20128;-65
2022/07/14 07:15:17;;;;;;;8.48;2.15;;;24.00;53.10;;;;;;5030964;28;20407;-66
2022/07/14 07:17:42;;;;;;;6.75;1.70;;;24.10;52.70;;;;;;5031393;28;20366;-66
2022/07/14 07:20:11;;;;;;;6.38;1.83;;;24.20;52.60;;;;;;5036968;28;20021;-66
2022/07/14 07:22:37;;;;;;;7.10;1.70;;;24.40;52.40;;;;;;5035777;28;20053;-66
2022/07/14 07:25:04;;;;;;;7.25;1.85;;;24.50;52.00;;;;;;5034163;28;20030;-67
2022/07/14 07:27:31;;;;;;;6.00;1.67;;;24.60;51.60;;;;;;5018712;28;20029;-66
2022/07/14 07:29:59;;;;;;;5.63;1.40;;;24.60;51.10;;;;;;5021822;28;20120;-66
2022/07/14 07:32:25;;;;;;;5.60;1.55;;;24.70;50.90;;;;;;5021707;28;20466;-65
2022/07/14 07:34:50;;;;;;;7.50;1.70;;;24.80;50.70;;;;;;5015588;28;20037;-66
2022/07/14 07:37:16;;;;;;;5.65;1.55;;;24.90;50.40;;;;;;5018498;28;20018;-67
2022/07/14 07:39:41;;;;;;;6.00;1.42;;;24.90;50.00;;;;;;5028636;28;20386;-66
2022/07/14 07:42:07;;;;;;;5.70;1.55;;;25.10;49.80;;;;;;5029153;28;20109;-66
2022/07/14 07:44:32;;;;;;;4.00;1.30;;;25.20;49.20;;;;;;5016809;28;20041;-66
2022/07/14 07:46:58;;;;;;;6.85;1.48;;;25.30;48.80;;;;;;5027623;28;20340;-66
2022/07/14 07:49:24;;;;;;;7.13;1.42;;;25.40;48.60;;;;;;5020304;28;20029;-67
2022/07/14 07:51:56;;;;;;;6.22;1.20;;;25.60;48.40;;;;;;5023561;28;20047;-66
2022/07/14 07:54:22;;;;;;;3.53;1.10;;;25.70;48.30;;;;;;5029095;28;20061;-66
2022/07/14 07:56:47;;;;;;;5.97;1.75;;;25.70;48.70;;;;;;5023344;28;20509;-66
2022/07/14 07:59:15;;;;;;;8.93;1.58;;;25.80;47.90;;;;;;5024148;28;20505;-66
2022/07/14 08:01:40;;;;;;;5.72;1.45;;;25.90;47.70;;;;;;5028369;28;20026;-66
2022/07/14 08:04:06;;;;;;;7.78;1.77;;;26.00;47.70;;;;;;5023776;28;20030;-66
2022/07/14 08:06:32;;;;;;;4.72;1.20;;;26.10;47.60;;;;;;5013229;28;20079;-68
2022/07/14 08:08:57;;;;;;;4.28;1.40;;;26.20;47.30;;;;;;5021056;28;20022;-66
2022/07/14 08:11:23;;;;;;;6.53;1.50;;;26.20;47.00;;;;;;5023615;28;20097;-67
2022/07/14 08:13:48;;;;;;;6.13;1.67;;;26.30;46.70;;;;;;5019199;28;20136;-67
2022/07/14 08:16:14;;;;;;;5.55;1.45;;;26.40;46.50;;;;;;5021362;28;20034;-67
2022/07/14 08:18:40;;;;;;;4.35;1.23;;;26.50;46.50;;;;;;5017096;28;20042;-66
2022/07/14 08:21:05;;;;;;;6.05;1.20;;;26.50;46.40;;;;;;5014702;28;20371;-67
2022/07/14 08:23:31;;;;;;;7.00;1.50;;;26.70;46.20;;;;;;5018782;28;20030;-67
2022/07/14 08:25:57;;;;;;;6.78;2.00;;;26.70;45.80;;;;;;5014865;28;20403;-67
2022/07/14 08:28:22;;;;;;;5.70;1.45;;;26.80;45.60;;;;;;5013397;28;20022;-66
2022/07/14 08:30:48;;;;;;;7.75;1.80;;;26.80;45.40;;;;;;5014026;28;20034;-67
2022/07/14 08:33:14;;;;;;;4.53;1.17;;;26.90;45.50;;;;;;5016651;28;20354;-66
2022/07/14 08:35:39;;;;;;;4.68;1.58;;;26.90;45.20;;;;;;5015574;28;20435;-66
2022/07/14 08:38:05;;;;;;;5.80;1.20;;;27.00;44.90;;;;;;5014303;28;20037;-66
2022/07/14 08:40:31;;;;;;;7.68;1.85;;;27.10;44.80;;;;;;5015686;28;20109;-66
2022/07/14 08:42:57;;;;;;;6.43;1.40;;;27.10;44.60;;;;;;5014036;28;20367;-66
2022/07/14 08:45:26;;;;;;;6.38;1.50;;;27.20;44.60;;;;;;5014857;28;20355;-66
2022/07/14 08:47:52;;;;;;;5.93;1.23;;;27.20;44.30;;;;;;5015004;28;20351;-66
2022/07/14 08:50:20;;;;;;;4.78;1.48;;;27.30;44.00;;;;;;5016008;28;20037;-66
2022/07/14 08:52:47;;;;;;;4.82;1.45;;;27.40;43.80;;;;;;5025624;28;20026;-66
2022/07/14 08:55:15;;;;;;;6.68;1.52;;;27.50;43.60;;;;;;5027024;28;20048;-66
2022/07/14 08:57:42;;;;;;;3.97;1.08;;;27.50;43.40;;;;;;5026905;28;20109;-66
2022/07/14 09:00:11;;;;;;;4.82;1.30;;;27.70;43.30;;;;;;5014600;28;20362;-66
2022/07/14 09:02:38;;;;;;;3.15;1.30;;;27.80;43.10;;;;;;5014630;28;20053;-66
2022/07/14 09:05:05;;;;;;;7.05;1.70;;;27.90;42.90;;;;;;5015514;28;20479;-66
2022/07/14 09:07:37;;;;;;;5.40;1.63;;;28.00;42.50;;;;;;5014482;28;20030;-66
2022/07/14 09:10:10;;;;;;;6.15;1.70;;;28.10;42.30;;;;;;5015652;28;20109;-66
2022/07/14 09:12:36;;;;;;;5.65;1.30;;;28.10;42.00;;;;;;5014809;28;20038;-66
2022/07/14 09:17:56;;;;;;;7.93;1.33;;;28.20;41.70;;;;;;5015409;28;20061;-66
2022/07/14 09:20:24;;;;;;;7.80;1.60;;;28.30;41.60;;;;;;5016072;28;20053;-66
2022/07/14 09:22:57;;;;;;;6.30;1.67;;;28.40;41.40;;;;;;5014501;28;20033;-67
2022/07/14 09:25:24;;;;;;;5.32;1.33;;;28.40;41.10;;;;;;5013145;28;20033;-66
2022/07/14 09:27:50;;;;;;;5.38;1.42;;;28.30;41.20;;;;;;5013538;28;20077;-66
2022/07/14 09:30:16;;;;;;;3.85;1.13;;;28.40;41.20;;;;;;5014291;28;20022;-66
2022/07/14 09:32:52;;;;;;;4.18;1.20;;;28.50;41.00;;;;;;5014296;28;20029;-66
2022/07/14 09:35:20;;;;;;;4.57;1.30;;;28.60;40.70;;;;;;5012257;28;20014;-66
2022/07/14 09:37:47;;;;;;;4.97;1.30;;;28.70;40.60;;;;;;5013202;28;20056;-66
2022/07/14 09:40:30;;;;;;;5.38;1.20;;;28.70;40.40;;;;;;5014657;28;20355;-67
2022/07/14 09:43:00;;;;;;;3.20;1.00;;;28.80;40.20;;;;;;5013779;28;20034;-66
2022/07/14 09:45:37;;;;;;;7.85;1.65;;;28.90;40.20;;;;;;5007023;28;20118;-66
2022/07/14 09:48:09;;;;;;;5.07;1.38;;;28.90;40.10;;;;;;5002360;28;20026;-66
2022/07/14 09:50:38;;;;;;;6.68;1.60;;;28.60;40.20;;;;;;5013612;28;20022;-66
2022/07/14 09:53:30;;;;;;;4.38;1.42;;;28.30;40.60;;;;;;5017340;28;20032;-66
2022/07/14 09:56:01;;;;;;;6.50;1.38;;;28.00;40.90;;;;;;5017878;28;20034;-66
2022/07/14 09:58:32;;;;;;;7.95;1.35;;;27.80;41.30;;;;;;5017246;28;20026;-65
2022/07/14 10:01:06;;;;;;;7.53;1.48;;;27.50;41.70;;;;;;5015597;28;20104;-66
2022/07/14 10:03:34;;;;;;;3.28;1.10;;;27.30;41.80;;;;;;5022753;28;20120;-66
2022/07/14 10:06:02;;;;;;;3.45;0.95;;;27.20;42.40;;;;;;5011629;28;20366;-65
2022/07/14 10:08:30;;;;;;;5.15;1.00;;;27.20;41.50;;;;;;5018269;28;20381;-66
2022/07/14 10:10:58;;;;;;;4.45;1.20;;;27.20;41.20;;;;;;5017865;28;20072;-66
2022/07/14 10:13:24;;;;;;;5.03;1.40;;;27.40;40.90;;;;;;5018341;28;20053;-66
2022/07/14 10:15:54;;;;;;;4.82;1.20;;;27.30;40.80;;;;;;5018805;28;20092;-66
2022/07/14 10:18:22;;;;;;;4.50;1.47;;;27.20;40.90;;;;;;5020559;28;20038;-66
2022/07/14 10:20:56;;;;;;;3.63;1.10;;;27.40;40.80;;;;;;5011192;28;20048;-67
2022/07/14 10:23:24;;;;;;;3.85;1.20;;;27.90;40.30;;;;;;5011124;28;20064;-66
2022/07/14 10:25:54;;;;;;;3.47;1.10;;;28.30;39.80;;;;;;5017097;28;20026;-66
2022/07/14 10:28:21;;;;;;;3.70;1.10;;;28.40;39.30;;;;;;5016426;28;20037;-67
2022/07/14 10:31:07;;;;;;;5.07;1.23;;;28.40;39.00;;;;;;5021455;28;20018;-67
2022/07/14 10:33:52;;;;;;;4.30;1.48;;;28.50;38.80;;;;;;5019997;28;20030;-66
2022/07/14 10:36:25;;;;;;;2.95;0.80;;;28.30;38.80;;;;;;5015064;28;20399;-68
2022/07/14 10:39:09;;;;;;;5.40;1.23;;;28.10;39.10;;;;;;5014153;28;20041;-66
2022/07/14 10:41:46;;;;;;;2.50;0.90;;;28.10;39.10;;;;;;5008435;28;20026;-67
2022/07/14 10:44:27;;;;;;;3.40;1.42;;;28.00;39.40;;;;;;5016215;28;20087;-67
2022/07/14 10:47:05;;;;;;;4.55;1.23;;;27.90;39.30;;;;;;5018051;28;20029;-68
2022/07/14 10:50:01;;;;;;;3.63;1.17;;;27.90;39.40;;;;;;5016940;28;20164;-67
2022/07/14 10:52:29;;;;;;;3.03;1.08;;;28.10;39.40;;;;;;5017814;28;20037;-68
2022/07/14 10:55:21;;;;;;;3.58;1.20;;;28.40;39.00;;;;;;5018600;28;20045;-67
2022/07/14 10:57:59;;;;;;;3.88;1.30;;;28.60;38.40;;;;;;5010558;28;20045;-67
2022/07/14 11:03:19;;;;;;;4.07;1.30;;;28.90;37.60;;;;;;5018137;28;20034;-68
2022/07/14 11:06:00;;;;;;;4.47;1.48;;;28.80;37.60;;;;;;5016392;28;20040;-67
2022/07/14 11:08:27;;;;;;;4.75;1.38;;;28.70;37.70;;;;;;5017575;28;20440;-67
2022/07/14 11:10:54;;;;;;;5.03;1.27;;;28.50;37.80;;;;;;5016282;28;20033;-68
2022/07/14 11:13:20;;;;;;;4.63;1.30;;;28.40;37.90;;;;;;5015494;28;20485;-68
2022/07/14 11:15:53;;;;;;;4.97;1.23;;;28.30;37.90;;;;;;5015297;28;20117;-68
2022/07/14 11:18:18;;;;;;;5.68;1.48;;;28.40;37.90;;;;;;5017339;28;20030;-68
2022/07/14 11:20:53;;;;;;;7.45;2.75;;;28.30;37.80;;;;;;5017132;28;20332;-67
2022/07/14 11:23:35;;;;;;;4.38;1.77;;;28.30;38.10;;;;;;5017049;28;20041;-67
2022/07/14 11:26:05;;;;;;;3.90;1.30;;;28.10;38.20;;;;;;5014189;28;20030;-67
2022/07/14 11:28:48;;;;;;;4.63;1.10;;;28.00;38.60;;;;;;5013376;28;20044;-67
2022/07/14 11:31:20;;;;;;;6.38;1.45;;;28.10;38.60;;;;;;5027498;28;20455;-68
2022/07/14 11:36:34;;;;;;;4.35;1.40;;;28.00;39.00;;;;;;5016297;28;20443;-61
2022/07/14 11:39:18;;;;;;;2.72;0.93;;;27.90;39.00;;;;;;5005710;28;20033;-62
2022/07/14 11:41:45;;;;;;;4.18;1.23;;;27.90;39.10;;;;;;5016403;28;20030;-61
2022/07/14 11:44:33;;;;;;;2.03;0.82;;;27.80;39.00;;;;;;5011321;28;20542;-62
2022/07/14 11:47:00;;;;;;;3.40;1.10;;;27.80;39.00;;;;;;5016419;28;20032;-62
2022/07/14 11:49:26;;;;;;;4.30;1.33;;;27.70;39.20;;;;;;5016703;28;20022;-61
2022/07/14 11:51:56;;;;;;;2.83;1.30;;;27.70;39.40;;;;;;5018501;28;20030;-62
2022/07/14 11:54:22;;;;;;;5.05;1.25;;;27.70;39.60;;;;;;5029583;28;20109;-62
2022/07/14 11:56:48;;;;;;;3.88;1.48;;;27.70;39.50;;;;;;5015333;28;20096;-61
2022/07/14 11:59:18;;;;;;;5.05;1.40;;;27.60;39.30;;;;;;5014601;28;20045;-62
2022/07/14 12:01:44;;;;;;;6.25;1.10;;;27.50;39.10;;;;;;5014896;28;20034;-62
2022/07/14 12:04:20;;;;;;;3.90;1.38;;;27.40;39.00;;;;;;5015567;28;20038;-62
2022/07/14 12:06:47;;;;;;;6.00;1.02;;;27.50;39.00;;;;;;5006599;28;20030;-61
2022/07/14 12:09:16;;;;;;;3.35;1.10;;;27.40;39.10;;;;;;5016485;28;20359;-61
2022/07/14 12:11:50;;;;;;;3.22;1.10;;;27.40;39.10;;;;;;5012757;28;20105;-61
2022/07/14 12:14:16;;;;;;;4.00;1.20;;;27.30;39.10;;;;;;5028630;28;20033;-61
2022/07/14 12:16:43;;;;;;;4.07;1.20;;;27.30;39.20;;;;;;5014520;28;20042;-61
2022/07/14 12:19:10;;;;;;;1.70;0.90;;;27.30;39.20;;;;;;5016170;28;20084;-62
2022/07/14 12:21:36;;;;;;;5.03;1.17;;;27.20;39.10;;;;;;5014522;28;20061;-61
2022/07/14 12:24:03;;;;;;;3.50;1.30;;;27.20;39.30;;;;;;5015374;28;20481;-61
2022/07/14 12:26:30;;;;;;;2.70;1.08;;;27.30;39.20;;;;;;5015282;28;20091;-62
2022/07/14 12:28:59;;;;;;;4.28;1.35;;;27.30;39.20;;;;;;5012451;28;20057;-62
2022/07/14 12:31:25;;;;;;;4.60;1.30;;;27.40;39.00;;;;;;5014839;28;20037;-61
2022/07/14 12:33:53;;;;;;;3.35;1.13;;;27.40;38.90;;;;;;5018627;28;20037;-62
2022/07/14 12:36:22;;;;;;;4.32;1.50;;;27.50;39.00;;;;;;5015733;28;20040;-62
2022/07/14 12:38:48;;;;;;;3.45;1.10;;;27.40;38.70;;;;;;5014654;28;20451;-62
2022/07/14 12:41:24;;;;;;;4.20;1.42;;;27.40;38.70;;;;;;5014887;28;20037;-62
2022/07/14 12:43:51;;;;;;;4.05;1.33;;;27.40;38.50;;;;;;5013351;28;20442;-62
2022/07/14 12:46:18;;;;;;;3.70;1.30;;;27.30;38.40;;;;;;5013366;28;20392;-61
2022/07/14 12:48:50;;;;;;;3.10;1.13;;;27.30;38.50;;;;;;5016697;28;20088;-61
2022/07/14 12:51:32;;;;;;;4.70;1.23;;;27.30;38.50;;;;;;5003887;28;20065;-62
2022/07/14 12:54:09;;;;;;;4.35;1.17;;;27.20;38.20;;;;;;5029989;28;20041;-62
2022/07/14 12:56:54;;;;;;;5.20;1.15;;;27.20;38.10;;;;;;5014314;28;20053;-62
2022/07/14 12:59:29;;;;;;;4.05;1.10;;;27.10;37.90;;;;;;5014973;28;20041;-62
2022/07/14 13:01:59;;;;;;;5.05;1.33;;;27.10;38.00;;;;;;5011679;28;20040;-62
2022/07/14 13:04:36;;;;;;;4.30;1.13;;;27.20;38.20;;;;;;5016015;28;20380;-62
2022/07/14 13:07:16;;;;;;;2.60;1.38;;;27.10;37.90;;;;;;4989473;28;20018;-62